Time;durP1;ratioP1;P1;durP2;ratioP2;P2;SDS_P1;SDS_P2;PMS_P1;PMS_P2;Temp;Humidity;BMP_temperature;BMP_pressure;BME280_temperature;BME280_humidity;BME280_pressure;Samples;Min_cycle;Max_cycle;Signal;HPM_P1;HPM_P2
2021/12/04 00:00:21;;;;;;;6.63;3.08;;;6.10;99.90;;;;;;5037078;28;20209;-79
2021/12/04 00:02:48;;;;;;;7.75;2.92;;;6.00;99.90;;;;;;5036458;28;20187;-78
2021/12/04 00:05:16;;;;;;;7.20;3.50;;;6.00;99.90;;;;;;5037233;28;20218;-78
2021/12/04 00:07:44;;;;;;;6.30;2.80;;;6.10;99.90;;;;;;5036959;28;20300;-79
2021/12/04 00:10:16;;;;;;;6.15;3.10;;;6.10;99.90;;;;;;5037372;28;20210;-79
2021/12/04 00:12:43;;;;;;;5.15;3.40;;;6.00;99.90;;;;;;5037482;28;20198;-79
2021/12/04 00:15:10;;;;;;;7.35;3.25;;;5.90;99.90;;;;;;5063098;22;20289;-78
2021/12/04 00:17:37;;;;;;;7.00;3.17;;;6.10;99.90;;;;;;5068239;28;20241;-79
2021/12/04 00:20:05;;;;;;;4.63;3.20;;;6.20;99.90;;;;;;5063076;28;20209;-78
2021/12/04 00:22:33;;;;;;;7.78;3.33;;;6.10;99.90;;;;;;5062892;28;20202;-79
2021/12/04 00:25:00;;;;;;;9.07;3.13;;;6.20;99.90;;;;;;5062971;28;20292;-79
2021/12/04 00:27:27;;;;;;;5.90;3.50;;;6.10;99.90;;;;;;5063728;28;20237;-79
2021/12/04 00:29:53;;;;;;;6.53;2.83;;;6.10;99.90;;;;;;5060279;28;20210;-78
2021/12/04 00:32:27;;;;;;;6.13;3.33;;;6.00;99.90;;;;;;5056890;28;20718;-78
2021/12/04 00:35:04;;;;;;;6.15;2.97;;;6.00;99.90;;;;;;5057181;28;20230;-78
2021/12/04 00:51:08;;;;;;;6.28;2.63;;;6.20;99.90;;;;;;5059052;28;20198;-78
2021/12/04 00:53:35;;;;;;;4.28;2.13;;;6.20;99.90;;;;;;5061654;28;20212;-78
2021/12/04 00:56:04;;;;;;;4.50;2.10;;;6.40;99.90;;;;;;5062332;28;20241;-78
2021/12/04 00:58:31;;;;;;;6.95;3.00;;;6.30;99.90;;;;;;5060100;28;20217;-78
2021/12/04 01:00:58;;;;;;;4.95;2.63;;;6.10;99.90;;;;;;5060003;28;20249;-78
2021/12/04 01:03:26;;;;;;;7.28;2.70;;;6.20;99.90;;;;;;5059483;28;20217;-78
2021/12/04 01:05:53;;;;;;;5.15;2.55;;;6.30;99.90;;;;;;5058476;28;20645;-78
2021/12/04 01:08:20;;;;;;;5.75;2.75;;;6.10;99.90;;;;;;5059087;28;20206;-78
2021/12/04 01:10:47;;;;;;;6.65;3.05;;;6.10;99.90;;;;;;5059868;28;20225;-77
2021/12/04 01:13:15;;;;;;;6.90;3.10;;;6.30;99.90;;;;;;5064710;28;20297;-79
2021/12/04 01:15:44;;;;;;;4.55;2.58;;;6.10;99.90;;;;;;5064997;28;20234;-80
2021/12/04 01:18:11;;;;;;;4.90;2.70;;;6.00;99.90;;;;;;5061379;28;20213;-77
2021/12/04 01:20:39;;;;;;;4.53;2.45;;;6.40;99.90;;;;;;5061115;28;20306;-77
2021/12/04 01:23:06;;;;;;;5.90;2.75;;;6.20;99.90;;;;;;5062518;28;20213;-79
2021/12/04 01:25:34;;;;;;;5.70;2.88;;;6.20;99.90;;;;;;5066040;28;20227;-79
2021/12/04 01:28:03;;;;;;;6.03;2.80;;;6.30;99.90;;;;;;5060037;28;20217;-78
2021/12/04 01:30:31;;;;;;;6.75;2.97;;;6.20;99.90;;;;;;5064228;28;20214;-79
2021/12/04 01:32:58;;;;;;;6.00;3.03;;;6.10;99.90;;;;;;5066040;28;20224;-79
2021/12/04 01:35:25;;;;;;;5.40;2.30;;;6.30;99.90;;;;;;5066211;28;20230;-79
2021/12/04 01:37:52;;;;;;;3.97;2.47;;;6.20;99.90;;;;;;5069429;28;20230;-79
2021/12/04 01:40:20;;;;;;;7.32;3.63;;;6.10;99.90;;;;;;5075863;28;20210;-81
2021/12/04 01:42:47;;;;;;;5.72;3.17;;;6.00;99.90;;;;;;5075541;28;20230;-78
2021/12/04 01:45:14;;;;;;;7.80;2.90;;;6.10;99.90;;;;;;5077570;28;20229;-78
2021/12/04 01:47:42;;;;;;;7.78;2.97;;;6.00;99.90;;;;;;5070106;28;20206;-79
2021/12/04 01:50:10;;;;;;;5.07;2.70;;;5.80;99.90;;;;;;5064785;28;20214;-79
2021/12/04 01:52:37;;;;;;;4.78;2.60;;;5.80;99.90;;;;;;5064463;28;20627;-79
2021/12/04 01:55:04;;;;;;;4.60;2.65;;;5.80;99.90;;;;;;5063581;28;20264;-79
2021/12/04 01:57:33;;;;;;;6.80;3.75;;;5.80;99.90;;;;;;5070379;28;20237;-79
2021/12/04 02:00:00;;;;;;;4.65;2.85;;;5.70;99.90;;;;;;5077097;28;20254;-79
2021/12/04 02:02:26;;;;;;;6.78;3.00;;;5.70;99.90;;;;;;5068548;28;20273;-79
2021/12/04 02:04:55;;;;;;;4.78;2.85;;;5.60;99.90;;;;;;5071626;28;20259;-79
2021/12/04 02:07:22;;;;;;;6.43;3.15;;;5.70;99.90;;;;;;5063223;28;20294;-79
2021/12/04 02:09:49;;;;;;;4.85;2.72;;;5.70;99.90;;;;;;5063709;28;20748;-79
2021/12/04 02:12:16;;;;;;;4.18;2.60;;;5.60;99.90;;;;;;5063718;28;20213;-77
2021/12/04 02:14:43;;;;;;;4.60;2.72;;;5.70;99.90;;;;;;5059790;28;20234;-79
2021/12/04 02:17:10;;;;;;;4.65;2.80;;;5.80;99.90;;;;;;5056627;28;20217;-78
2021/12/04 02:19:37;;;;;;;4.75;3.10;;;5.60;99.90;;;;;;5056346;28;20293;-78
2021/12/04 02:22:05;;;;;;;4.13;2.35;;;5.70;99.90;;;;;;5057549;28;20578;-79
2021/12/04 02:24:32;;;;;;;4.55;2.60;;;5.90;99.90;;;;;;5062978;28;20222;-79
2021/12/04 02:26:59;;;;;;;5.90;3.30;;;5.90;99.90;;;;;;5062175;28;20344;-79
2021/12/04 02:29:26;;;;;;;4.70;2.70;;;5.80;99.90;;;;;;5062442;28;20266;-78
2021/12/04 02:31:55;;;;;;;6.65;3.00;;;5.80;99.90;;;;;;5063410;28;20273;-78
2021/12/04 02:34:23;;;;;;;4.60;2.72;;;5.70;99.90;;;;;;5063923;28;20210;-79
2021/12/04 02:36:50;;;;;;;4.53;2.85;;;5.90;99.90;;;;;;5062737;28;20592;-79
2021/12/04 02:39:28;;;;;;;5.22;2.80;;;5.70;99.90;;;;;;5059870;28;20293;-78
2021/12/04 02:41:56;;;;;;;5.15;3.10;;;5.70;99.90;;;;;;5056949;28;20191;-78
2021/12/04 02:44:24;;;;;;;5.80;2.88;;;5.60;99.90;;;;;;5055196;28;20294;-77
2021/12/04 02:46:51;;;;;;;5.53;3.05;;;5.60;99.90;;;;;;5054689;28;20213;-78
2021/12/04 02:49:18;;;;;;;5.13;2.80;;;5.50;99.90;;;;;;5054871;28;20304;-78
2021/12/04 02:51:44;;;;;;;6.57;3.15;;;5.20;99.90;;;;;;5054956;28;20217;-77
2021/12/04 02:54:12;;;;;;;8.27;4.05;;;5.30;99.90;;;;;;5056162;28;20232;-78
2021/12/04 02:56:44;;;;;;;9.60;3.90;;;5.40;99.90;;;;;;5056164;28;20264;-78
2021/12/04 02:59:11;;;;;;;6.15;4.18;;;5.20;99.90;;;;;;5055573;28;20268;-78
2021/12/04 03:01:38;;;;;;;8.15;4.22;;;5.30;99.90;;;;;;5054299;28;20212;-78
2021/12/04 03:04:07;;;;;;;6.72;4.22;;;5.40;99.90;;;;;;5054242;28;20206;-77
2021/12/04 03:06:39;;;;;;;5.40;3.50;;;5.30;99.90;;;;;;5054267;28;20233;-77
2021/12/04 03:09:06;;;;;;;7.95;3.92;;;5.40;99.90;;;;;;5055506;28;20205;-78
2021/12/04 03:11:33;;;;;;;6.10;3.60;;;5.20;99.90;;;;;;5055679;28;20563;-78
2021/12/04 03:14:01;;;;;;;6.03;3.80;;;5.20;99.90;;;;;;5057052;28;20221;-78
2021/12/04 03:16:28;;;;;;;5.38;3.65;;;5.40;99.90;;;;;;5057254;28;20348;-78
2021/12/04 03:18:55;;;;;;;6.60;4.05;;;5.20;99.90;;;;;;5053839;28;20212;-78
2021/12/04 03:21:22;;;;;;;5.57;3.50;;;5.40;99.90;;;;;;5057018;28;20210;-78
2021/12/04 03:23:55;;;;;;;6.03;3.67;;;5.60;99.90;;;;;;5057908;28;20296;-78
2021/12/04 03:26:23;;;;;;;6.38;4.38;;;5.40;99.90;;;;;;5058427;28;20232;-78
2021/12/04 03:28:51;;;;;;;6.70;3.78;;;5.40;99.90;;;;;;5062760;28;20306;-78
2021/12/04 03:31:23;;;;;;;6.20;3.92;;;5.50;99.90;;;;;;5058622;28;20251;-78
2021/12/04 03:42:02;;;;;;;6.55;3.65;;;5.30;99.90;;;;;;5054737;28;20537;-79
2021/12/04 03:44:31;;;;;;;6.68;3.88;;;5.50;99.90;;;;;;5061186;28;20352;-78
2021/12/04 03:46:59;;;;;;;6.97;4.32;;;5.60;99.90;;;;;;5061958;28;20206;-78
2021/12/04 03:49:26;;;;;;;7.10;3.58;;;5.70;99.90;;;;;;5060197;28;20212;-79
2021/12/04 03:51:53;;;;;;;6.82;4.00;;;5.50;99.90;;;;;;5058339;28;20217;-79
2021/12/04 03:54:20;;;;;;;6.22;4.15;;;5.60;99.90;;;;;;5058008;28;20213;-78
2021/12/04 03:56:47;;;;;;;5.10;3.50;;;5.60;99.90;;;;;;5068761;28;20321;-79
2021/12/04 03:59:14;;;;;;;6.70;3.90;;;5.80;99.90;;;;;;5066658;28;20206;-79
2021/12/04 04:01:41;;;;;;;9.00;4.32;;;5.60;99.90;;;;;;5057492;28;20245;-79
2021/12/04 04:04:09;;;;;;;6.97;4.45;;;5.70;99.90;;;;;;5065277;28;20212;-78
2021/12/04 04:06:36;;;;;;;5.25;3.30;;;5.40;99.90;;;;;;5074097;28;20204;-78
2021/12/04 04:09:04;;;;;;;6.20;3.80;;;5.40;99.90;;;;;;5064510;28;20212;-79
2021/12/04 04:11:35;;;;;;;6.72;4.15;;;5.50;99.90;;;;;;5066907;28;20210;-79
2021/12/04 04:14:02;;;;;;;8.80;4.15;;;5.60;99.90;;;;;;5060625;28;20667;-79
2021/12/04 04:16:28;;;;;;;7.53;4.00;;;5.70;99.90;;;;;;5062918;28;20234;-79
2021/12/04 04:18:55;;;;;;;6.03;3.92;;;5.40;99.90;;;;;;5061874;28;20238;-79
2021/12/04 04:21:23;;;;;;;6.82;4.65;;;5.40;99.90;;;;;;5062923;28;20270;-78
2021/12/04 04:23:50;;;;;;;6.32;3.63;;;5.70;99.90;;;;;;5063216;28;20206;-79
2021/12/04 04:26:17;;;;;;;9.68;3.80;;;5.50;99.90;;;;;;5063250;28;20240;-79
2021/12/04 04:28:44;;;;;;;4.65;2.78;;;5.70;99.90;;;;;;5063311;28;20742;-79
2021/12/04 04:31:11;;;;;;;6.20;3.45;;;5.50;99.90;;;;;;5062982;28;20213;-79
2021/12/04 04:33:40;;;;;;;5.78;3.10;;;5.50;99.90;;;;;;5064048;28;20236;-78
2021/12/04 04:36:16;;;;;;;7.70;3.45;;;5.70;99.90;;;;;;5063896;28;20236;-79
2021/12/04 04:38:50;;;;;;;6.30;3.30;;;5.70;99.90;;;;;;5062067;28;20210;-77
2021/12/04 04:58:15;;;;;;;10.02;5.35;;;6.00;99.90;;;;;;5025758;28;20683;-78
2021/12/04 05:11:42;;;;;;;9.18;5.30;;;5.80;99.90;;;;;;5061848;28;20599;-78
2021/12/04 05:14:17;;;;;;;9.15;6.47;;;5.50;99.90;;;;;;5070798;28;20664;-78
2021/12/04 05:16:49;;;;;;;8.23;5.65;;;5.80;99.90;;;;;;5065338;28;20193;-78
2021/12/04 05:19:27;;;;;;;8.95;6.15;;;5.60;99.90;;;;;;5062033;28;20190;-79
2021/12/04 05:21:54;;;;;;;8.40;5.55;;;5.60;99.90;;;;;;5061835;28;20681;-79
2021/12/04 05:24:21;;;;;;;11.27;6.55;;;5.60;99.90;;;;;;5060974;28;20206;-79
2021/12/04 05:26:49;;;;;;;9.70;6.13;;;5.50;99.90;;;;;;5061593;28;20216;-78
2021/12/04 05:29:16;;;;;;;8.00;5.88;;;5.40;99.90;;;;;;5060936;28;20655;-78
2021/12/04 05:31:43;;;;;;;9.25;5.50;;;5.50;99.90;;;;;;5065981;28;20274;-78
2021/12/04 05:34:10;;;;;;;7.57;4.10;;;5.70;99.90;;;;;;5073099;28;20277;-79
2021/12/04 05:36:37;;;;;;;6.22;3.28;;;5.60;99.90;;;;;;5073277;28;20285;-78
2021/12/04 05:39:04;;;;;;;5.28;3.40;;;5.90;99.90;;;;;;5071785;28;20325;-78
2021/12/04 05:41:31;;;;;;;6.82;3.80;;;5.90;99.90;;;;;;5070630;28;20373;-78
2021/12/04 05:44:04;;;;;;;6.00;3.65;;;6.00;99.90;;;;;;5070136;28;20277;-78
2021/12/04 05:46:36;;;;;;;7.65;3.67;;;6.00;99.90;;;;;;5069513;28;20226;-79
2021/12/04 05:49:06;;;;;;;4.97;2.83;;;6.00;99.90;;;;;;5069681;28;20244;-79
2021/12/04 05:51:48;;;;;;;4.57;2.42;;;5.90;99.90;;;;;;5067515;28;20269;-79
2021/12/04 05:57:12;;;;;;;5.07;2.30;;;6.00;99.90;;;;;;5068055;28;20198;-79
2021/12/04 05:59:41;;;;;;;7.10;4.28;;;6.20;99.90;;;;;;5069982;28;20293;-79
2021/12/04 06:02:07;;;;;;;6.70;4.28;;;6.10;99.90;;;;;;5062496;28;20650;-79
2021/12/04 06:04:34;;;;;;;6.50;3.83;;;6.30;99.90;;;;;;5061731;28;20302;-78
2021/12/04 06:07:01;;;;;;;6.25;4.32;;;6.40;99.90;;;;;;5062632;28;20202;-79
2021/12/04 06:09:28;;;;;;;7.30;4.57;;;6.50;99.90;;;;;;5057571;28;20590;-78
2021/12/04 06:11:57;;;;;;;9.30;5.30;;;6.60;99.90;;;;;;5058256;28;20213;-78
2021/12/04 06:14:24;;;;;;;9.75;5.55;;;6.50;99.90;;;;;;5057840;28;20609;-77
2021/12/04 06:16:52;;;;;;;7.32;5.00;;;6.20;99.90;;;;;;5081464;22;20582;-78
2021/12/04 06:22:37;;;;;;;8.70;6.00;;;6.10;99.90;;;;;;5058107;28;20236;-78
2021/12/04 06:24:56;;;;;;;11.13;6.93;;;5.90;99.90;;;;;;5055293;28;20268;-79
2021/12/04 06:27:23;;;;;;;8.95;6.40;;;5.80;99.90;;;;;;5055502;28;20206;-77
2021/12/04 06:29:50;;;;;;;10.93;5.90;;;5.90;99.90;;;;;;5055635;28;20666;-77
2021/12/04 06:32:20;;;;;;;9.68;6.15;;;6.00;99.90;;;;;;5055589;28;20581;-79
2021/12/04 06:34:46;;;;;;;6.22;3.65;;;5.80;99.90;;;;;;5055420;28;20214;-77
2021/12/04 06:37:14;;;;;;;5.60;3.15;;;6.00;99.90;;;;;;5055839;28;20206;-77
2021/12/04 06:39:41;;;;;;;4.22;2.30;;;6.00;99.90;;;;;;5055873;28;20213;-77
2021/12/04 06:42:08;;;;;;;4.05;1.90;;;6.10;99.90;;;;;;5054583;28;20210;-77
2021/12/04 06:44:35;;;;;;;3.33;1.75;;;6.30;99.90;;;;;;5055874;28;20212;-78
2021/12/04 06:47:02;;;;;;;2.50;0.85;;;6.50;99.90;;;;;;5055362;28;20313;-78
2021/12/04 06:49:33;;;;;;;2.75;0.98;;;6.70;99.90;;;;;;5054874;28;20199;-77
2021/12/04 06:52:04;;;;;;;2.42;0.77;;;6.70;99.90;;;;;;5055005;28;20190;-77
2021/12/04 06:54:34;;;;;;;2.83;0.70;;;6.80;99.90;;;;;;5054724;28;20195;-77
2021/12/04 06:57:03;;;;;;;2.35;0.70;;;6.90;99.90;;;;;;5054948;28;20226;-78
2021/12/04 06:59:32;;;;;;;2.85;1.02;;;6.80;99.90;;;;;;5055430;28;20745;-77
2021/12/04 07:01:59;;;;;;;3.28;1.00;;;6.90;99.90;;;;;;5055266;28;20206;-78
2021/12/04 07:04:30;;;;;;;3.30;1.10;;;7.00;99.90;;;;;;5054829;28;20297;-77
2021/12/04 07:06:58;;;;;;;2.70;0.90;;;6.90;99.90;;;;;;5054970;28;20320;-77
2021/12/04 07:09:24;;;;;;;4.30;1.40;;;7.10;99.90;;;;;;5054765;28;20218;-81
2021/12/04 07:11:51;;;;;;;2.50;0.90;;;6.90;99.90;;;;;;5055137;28;20208;-77
2021/12/04 07:14:18;;;;;;;2.45;0.80;;;7.00;99.90;;;;;;5054870;28;20204;-77
2021/12/04 07:16:46;;;;;;;2.40;0.60;;;7.10;99.90;;;;;;5054093;28;20237;-77
2021/12/04 07:19:13;;;;;;;3.05;1.00;;;7.20;99.90;;;;;;5054639;28;20326;-77
2021/12/04 07:21:40;;;;;;;2.33;0.75;;;7.00;99.90;;;;;;5055082;28;20293;-77
2021/12/04 07:24:10;;;;;;;2.63;0.90;;;7.30;99.90;;;;;;5054477;28;20556;-77
2021/12/04 07:26:37;;;;;;;2.60;0.80;;;7.40;99.90;;;;;;5054906;28;20226;-79
2021/12/04 07:29:04;;;;;;;2.70;0.80;;;7.30;99.90;;;;;;5054064;28;20208;-77
2021/12/04 07:31:31;;;;;;;3.75;0.70;;;7.30;99.90;;;;;;5054145;28;20290;-77
2021/12/04 07:33:58;;;;;;;2.50;1.00;;;7.40;99.90;;;;;;5054710;28;20207;-79
2021/12/04 07:36:25;;;;;;;2.78;0.75;;;7.40;99.90;;;;;;5054246;28;20695;-77
2021/12/04 07:38:53;;;;;;;2.30;0.88;;;7.40;99.90;;;;;;5054660;28;20223;-77
2021/12/04 07:41:21;;;;;;;2.75;0.60;;;7.30;99.90;;;;;;5054113;28;20250;-77
2021/12/04 07:43:48;;;;;;;2.60;0.80;;;7.30;99.90;;;;;;5055502;28;20219;-77
2021/12/04 07:46:15;;;;;;;2.90;0.90;;;7.40;99.90;;;;;;5054024;28;20223;-77
2021/12/04 07:48:42;;;;;;;3.22;0.98;;;7.60;99.90;;;;;;5054491;28;20205;-77
2021/12/04 07:51:09;;;;;;;3.75;0.85;;;7.40;99.90;;;;;;5055917;28;20207;-77
2021/12/04 07:53:36;;;;;;;7.32;1.00;;;7.40;99.90;;;;;;5056781;28;20208;-76
2021/12/04 07:56:03;;;;;;;3.40;0.88;;;7.40;99.90;;;;;;5056786;28;20227;-77
2021/12/04 07:58:32;;;;;;;2.30;0.80;;;7.60;99.90;;;;;;5055541;28;20245;-77
2021/12/04 08:00:59;;;;;;;3.10;0.90;;;7.40;99.90;;;;;;5057218;28;20223;-77
2021/12/04 08:03:26;;;;;;;2.60;0.80;;;7.50;99.90;;;;;;5054294;28;20233;-77
2021/12/04 08:05:53;;;;;;;6.35;0.98;;;7.60;99.90;;;;;;5054234;28;20238;-78
2021/12/04 08:08:20;;;;;;;6.13;0.95;;;7.40;99.90;;;;;;5053291;28;20675;-77
2021/12/04 08:10:47;;;;;;;2.95;0.85;;;7.80;99.90;;;;;;5054023;28;20211;-77
2021/12/04 08:13:13;;;;;;;3.70;1.33;;;7.70;99.90;;;;;;5054915;28;20232;-77
2021/12/04 08:15:42;;;;;;;3.47;1.00;;;7.40;99.90;;;;;;5055852;28;20235;-77
2021/12/04 08:18:09;;;;;;;2.60;1.08;;;7.70;99.90;;;;;;5054168;28;20223;-78
2021/12/04 08:20:37;;;;;;;3.50;1.23;;;7.70;99.90;;;;;;5055707;28;20675;-78
2021/12/04 08:23:04;;;;;;;4.60;1.10;;;7.70;99.90;;;;;;5055543;28;20231;-78
2021/12/04 08:25:31;;;;;;;3.08;1.50;;;7.80;99.90;;;;;;5055667;28;20257;-79
2021/12/04 08:27:59;;;;;;;3.75;1.23;;;7.70;99.90;;;;;;5055394;28;20215;-78
2021/12/04 08:30:31;;;;;;;3.00;1.20;;;7.80;99.90;;;;;;5055398;28;20211;-78
2021/12/04 08:33:00;;;;;;;3.55;1.30;;;7.60;99.90;;;;;;5055946;28;20281;-78
2021/12/04 08:35:35;;;;;;;3.60;1.25;;;7.80;99.90;;;;;;5055295;28;20231;-78
2021/12/04 08:38:02;;;;;;;2.80;0.90;;;7.90;99.90;;;;;;5058884;28;20199;-79
2021/12/04 08:40:30;;;;;;;4.22;1.15;;;7.90;99.90;;;;;;5057628;28;20314;-78
2021/12/04 08:42:57;;;;;;;2.97;1.30;;;8.00;99.90;;;;;;5058201;28;20698;-80
2021/12/04 08:45:24;;;;;;;3.28;1.48;;;7.90;99.90;;;;;;5060013;28;20233;-79
2021/12/04 08:47:51;;;;;;;3.35;1.10;;;7.90;99.90;;;;;;5058948;28;20215;-79
2021/12/04 08:50:25;;;;;;;2.58;1.10;;;8.00;99.90;;;;;;5056009;28;20210;-78
2021/12/04 08:52:54;;;;;;;2.47;0.90;;;8.00;99.90;;;;;;5056390;28;20257;-81
2021/12/04 08:55:22;;;;;;;2.70;0.90;;;8.00;99.90;;;;;;5060048;28;20259;-77
2021/12/04 08:57:49;;;;;;;3.95;1.50;;;8.10;99.90;;;;;;5058436;28;20735;-78
2021/12/04 09:00:26;;;;;;;3.75;1.40;;;8.20;99.90;;;;;;5054129;28;20725;-77
2021/12/04 09:02:54;;;;;;;2.80;1.02;;;8.10;99.90;;;;;;5054734;28;20187;-78
2021/12/04 09:05:23;;;;;;;2.50;0.90;;;8.20;99.90;;;;;;5055446;28;20299;-79
2021/12/04 09:07:53;;;;;;;2.78;0.90;;;8.20;99.90;;;;;;5060577;28;20230;-80
2021/12/04 09:10:21;;;;;;;2.70;0.90;;;8.30;99.90;;;;;;5061005;28;20208;-79
2021/12/04 09:12:49;;;;;;;2.72;0.80;;;8.40;99.90;;;;;;5060956;28;20558;-78
2021/12/04 09:15:19;;;;;;;3.15;1.00;;;8.40;99.90;;;;;;5058694;28;20231;-78
2021/12/04 09:17:46;;;;;;;4.28;1.30;;;8.40;99.90;;;;;;5059361;28;20217;-79
2021/12/04 09:20:16;;;;;;;2.85;1.00;;;8.50;99.90;;;;;;5062032;28;20707;-78
2021/12/04 09:22:45;;;;;;;2.95;1.02;;;8.50;99.90;;;;;;5065173;28;20711;-78
2021/12/04 09:25:16;;;;;;;3.10;1.20;;;8.60;99.90;;;;;;5058711;28;20229;-78
2021/12/04 10:01:07;;;;;;;3.70;1.67;;;9.00;99.90;;;;;;5056062;28;20420;-79
2021/12/04 10:03:45;;;;;;;3.30;1.27;;;9.10;99.90;;;;;;5055785;28;20192;-77
2021/12/04 10:11:07;;;;;;;3.63;1.30;;;9.20;99.90;;;;;;5055275;28;20569;-77
2021/12/04 10:24:12;;;;;;;4.60;2.00;;;9.70;99.90;;;;;;5007729;28;20430;-77
2021/12/04 10:32:29;;;;;;;4.20;1.63;;;9.90;99.90;;;;;;5058728;28;20494;-78
2021/12/04 10:34:59;;;;;;;3.20;1.27;;;9.80;99.90;;;;;;5063454;28;20523;-78
2021/12/04 10:37:29;;;;;;;5.37;1.50;;;9.90;99.90;;;;;;5065273;28;20470;-78
2021/12/04 10:39:59;;;;;;;4.13;1.40;;;9.90;99.90;;;;;;5058308;28;20475;-80
2021/12/04 10:42:32;;;;;;;2.80;1.00;;;10.10;99.90;;;;;;5058470;28;20451;-80
2021/12/04 10:45:01;;;;;;;2.87;0.93;;;10.10;99.90;;;;;;5056526;28;20773;-78
2021/12/04 10:47:28;;;;;;;3.80;1.40;;;10.10;99.90;;;;;;5060144;28;20451;-78
2021/12/04 10:50:09;;;;;;;2.70;0.97;;;10.10;99.90;;;;;;5063559;28;20875;-77
2021/12/04 10:52:47;;;;;;;2.50;0.90;;;10.30;99.90;;;;;;5062301;28;20856;-76
2021/12/04 10:55:18;;;;;;;3.00;0.93;;;10.30;99.90;;;;;;5064684;28;20483;-79
2021/12/04 11:00:53;;;;;;;3.67;1.23;;;10.50;99.90;;;;;;5059815;28;20440;-77
2021/12/04 11:40:34;;;;;;;3.33;1.00;;;10.90;99.90;;;;;;5093795;27;20585;-79
2021/12/04 11:43:04;;;;;;;5.23;1.30;;;10.90;99.90;;;;;;5095770;28;20452;-79
2021/12/04 11:45:42;;;;;;;3.67;1.57;;;11.00;99.90;;;;;;5094895;28;20470;-78
2021/12/04 11:48:09;;;;;;;3.07;1.33;;;11.10;99.90;;;;;;5098370;28;20471;-78
2021/12/04 11:50:38;;;;;;;4.13;1.20;;;11.00;99.90;;;;;;5100971;28;20461;-80
2021/12/04 11:53:10;;;;;;;3.40;1.57;;;11.00;99.90;;;;;;5097138;28;20856;-79
2021/12/04 11:55:41;;;;;;;3.40;1.30;;;11.00;99.90;;;;;;5094998;28;20553;-79
2021/12/04 11:58:18;;;;;;;3.70;1.50;;;11.00;99.90;;;;;;5096055;28;20496;-80
2021/12/04 12:00:45;;;;;;;2.97;1.27;;;11.00;99.90;;;;;;5095956;28;20458;-80
2021/12/04 12:03:15;;;;;;;3.37;1.33;;;11.00;99.90;;;;;;5095145;28;20439;-83
2021/12/04 12:05:45;;;;;;;3.03;0.87;;;11.00;99.90;;;;;;5094832;28;20463;-80
2021/12/04 12:08:23;;;;;;;3.43;0.83;;;11.00;99.90;;;;;;5095599;28;20497;-79
2021/12/04 12:10:54;;;;;;;2.60;0.80;;;11.10;99.90;;;;;;5097242;28;20511;-80
2021/12/04 12:13:27;;;;;;;2.63;1.00;;;11.20;99.90;;;;;;5100145;28;20434;-79
2021/12/04 12:16:00;;;;;;;2.80;0.90;;;11.20;99.90;;;;;;5129762;23;20454;-80
2021/12/04 12:18:28;;;;;;;3.77;1.60;;;11.00;99.90;;;;;;5040784;28;20492;-81
2021/12/04 12:20:59;;;;;;;2.67;1.13;;;11.00;99.90;;;;;;5035259;28;20507;-81
2021/12/04 12:23:29;;;;;;;3.77;1.10;;;11.10;99.90;;;;;;5036226;28;20441;-80
2021/12/04 12:26:12;;;;;;;3.83;1.17;;;11.20;99.90;;;;;;5033542;28;20472;-79
2021/12/04 12:36:02;;;;;;;3.10;1.07;;;11.10;99.90;;;;;;5042719;28;20424;-79
2021/12/04 12:37:20;;;;;;;2.80;0.90;;;11.10;99.90;;;;;;5037575;28;20971;-78
2021/12/04 12:39:57;;;;;;;3.00;1.13;;;11.00;99.90;;;;;;5041308;28;20535;-80
2021/12/04 12:42:31;;;;;;;3.00;1.07;;;11.10;99.90;;;;;;5033976;28;20463;-79
2021/12/04 12:45:16;;;;;;;4.17;1.40;;;11.20;99.90;;;;;;5032625;28;20935;-80
2021/12/04 12:47:51;;;;;;;3.17;1.40;;;11.10;99.90;;;;;;5035280;28;21002;-80
2021/12/04 12:50:30;;;;;;;2.87;0.80;;;11.10;99.90;;;;;;5027540;28;20452;-79
2021/12/04 12:53:01;;;;;;;4.00;1.00;;;11.10;99.90;;;;;;5020007;28;20461;-80
2021/12/04 12:55:32;;;;;;;3.67;1.30;;;11.00;99.90;;;;;;5020852;28;20497;-80
2021/12/04 12:58:16;;;;;;;3.17;1.30;;;11.10;99.90;;;;;;5019892;28;20812;-78
2021/12/04 13:12:02;;;;;;;4.30;1.00;;;11.10;99.90;;;;;;5018850;28;20490;-80
2021/12/04 13:14:35;;;;;;;3.00;1.60;;;11.10;99.90;;;;;;5017958;28;20834;-80
2021/12/04 13:17:07;;;;;;;2.60;0.90;;;11.00;99.90;;;;;;5018470;28;20575;-79
2021/12/04 13:19:37;;;;;;;2.50;0.80;;;11.00;99.90;;;;;;5018006;28;20998;-80
2021/12/04 13:22:08;;;;;;;3.03;1.27;;;11.00;99.90;;;;;;5017384;28;20461;-80
2021/12/04 13:24:37;;;;;;;3.63;1.10;;;11.00;99.90;;;;;;5018229;28;20514;-80
2021/12/04 13:29:41;;;;;;;3.13;1.10;;;11.00;99.90;;;;;;5019487;28;20936;-79
2021/12/04 13:32:10;;;;;;;3.40;1.27;;;10.90;99.90;;;;;;5017957;28;20449;-80
2021/12/04 13:34:40;;;;;;;3.00;1.10;;;10.90;99.90;;;;;;5018219;28;20548;-78
2021/12/04 13:37:08;;;;;;;3.00;0.97;;;11.00;99.90;;;;;;5018266;28;20485;-79
2021/12/04 13:39:35;;;;;;;2.90;1.20;;;10.90;99.90;;;;;;5018116;28;20989;-80
2021/12/04 13:42:04;;;;;;;2.67;1.10;;;10.90;99.90;;;;;;5019243;28;20453;-80
2021/12/04 13:44:32;;;;;;;2.53;0.90;;;11.00;99.90;;;;;;5018979;28;20457;-81
2021/12/04 13:47:04;;;;;;;4.50;1.37;;;11.00;99.90;;;;;;5021495;28;20561;-80
2021/12/04 13:49:34;;;;;;;3.20;1.10;;;11.00;99.90;;;;;;5021357;28;20437;-80
2021/12/04 13:52:04;;;;;;;3.07;1.37;;;11.10;99.90;;;;;;5019770;28;20477;-78
2021/12/04 13:54:33;;;;;;;4.50;1.63;;;11.10;99.90;;;;;;5017904;28;20874;-79
2021/12/04 13:57:00;;;;;;;3.10;1.57;;;11.10;99.90;;;;;;5017536;28;20557;-81
2021/12/04 13:59:29;;;;;;;4.30;1.97;;;11.10;99.90;;;;;;5017926;28;20959;-79
2021/12/04 14:01:56;;;;;;;3.60;1.53;;;11.10;99.90;;;;;;5016695;28;20565;-79
2021/12/04 14:04:24;;;;;;;4.03;1.50;;;11.00;99.90;;;;;;5017821;28;20455;-79
2021/12/04 14:06:54;;;;;;;4.77;1.10;;;11.00;99.90;;;;;;5017709;28;20601;-81
2021/12/04 14:09:23;;;;;;;4.43;1.87;;;11.00;99.90;;;;;;5018164;28;20796;-80
2021/12/04 14:11:52;;;;;;;4.83;1.60;;;11.00;99.90;;;;;;5017719;28;20461;-79
2021/12/04 14:14:21;;;;;;;3.20;1.33;;;10.90;99.90;;;;;;5017839;28;20457;-80
2021/12/04 14:16:51;;;;;;;3.37;1.40;;;10.90;99.90;;;;;;5017483;28;20492;-80
2021/12/04 14:19:22;;;;;;;3.13;1.40;;;10.90;99.90;;;;;;5017744;28;20555;-80
2021/12/04 14:21:56;;;;;;;3.30;1.50;;;10.90;99.90;;;;;;5016959;28;20472;-81
2021/12/04 14:24:30;;;;;;;4.77;2.67;;;10.90;99.90;;;;;;5017634;28;20517;-81
2021/12/04 14:26:59;;;;;;;5.23;1.73;;;11.00;99.90;;;;;;5017210;28;20536;-79
2021/12/04 14:29:33;;;;;;;3.13;1.27;;;10.90;99.90;;;;;;5017575;28;20450;-79
2021/12/04 14:32:01;;;;;;;3.50;1.27;;;10.90;99.90;;;;;;5017789;28;20529;-80
2021/12/04 14:34:30;;;;;;;5.43;1.60;;;10.80;99.90;;;;;;5017925;28;20651;-80
2021/12/04 14:37:10;;;;;;;6.63;1.73;;;10.70;99.90;;;;;;5017559;28;20843;-79
2021/12/04 14:39:39;;;;;;;5.17;1.50;;;10.80;99.90;;;;;;5019348;28;20814;-80
2021/12/04 14:42:14;;;;;;;3.30;1.33;;;10.70;99.90;;;;;;5022729;28;20431;-80
2021/12/04 14:44:43;;;;;;;3.23;1.10;;;10.70;99.90;;;;;;5018052;28;20457;-80
2021/12/04 14:47:11;;;;;;;4.40;1.40;;;10.60;99.90;;;;;;5019056;28;20513;-80
2021/12/04 14:49:41;;;;;;;3.07;1.40;;;10.50;99.90;;;;;;5016886;28;20456;-79
2021/12/04 14:52:16;;;;;;;2.90;1.23;;;10.50;99.90;;;;;;5017221;28;20925;-80
2021/12/04 14:54:43;;;;;;;4.33;2.17;;;10.60;99.90;;;;;;5017873;28;20444;-80
2021/12/04 14:57:14;;;;;;;5.70;1.40;;;10.60;99.90;;;;;;5016733;28;20819;-80
2021/12/04 14:59:42;;;;;;;4.57;1.70;;;10.60;99.90;;;;;;5017486;28;20504;-79
2021/12/04 15:02:15;;;;;;;3.73;1.40;;;10.50;99.90;;;;;;5017174;28;20457;-81
2021/12/04 15:04:42;;;;;;;3.40;1.50;;;10.50;99.90;;;;;;5018160;28;20523;-81
2021/12/04 15:07:20;;;;;;;3.73;1.40;;;10.50;99.90;;;;;;5016545;28;20847;-80
2021/12/04 15:09:47;;;;;;;4.13;1.90;;;10.50;99.90;;;;;;5016704;28;20954;-80
2021/12/04 15:12:29;;;;;;;4.00;1.97;;;10.60;99.90;;;;;;5017368;28;20540;-80
2021/12/04 15:14:58;;;;;;;4.10;1.90;;;10.50;99.90;;;;;;5018388;28;20499;-77
2021/12/04 15:17:25;;;;;;;4.30;1.73;;;10.50;99.90;;;;;;5021624;28;20572;-80
2021/12/04 15:19:54;;;;;;;4.40;2.13;;;10.50;99.90;;;;;;5017830;28;20556;-81
2021/12/04 15:22:30;;;;;;;4.23;1.90;;;10.60;99.90;;;;;;5016743;28;20565;-81
2021/12/04 15:24:57;;;;;;;4.17;1.93;;;10.60;99.90;;;;;;5017956;28;20429;-79
2021/12/04 15:27:27;;;;;;;3.93;2.07;;;10.60;99.90;;;;;;5017908;28;20470;-79
2021/12/04 15:29:55;;;;;;;7.60;2.90;;;10.60;99.90;;;;;;5018280;28;20482;-80
2021/12/04 15:32:24;;;;;;;3.97;1.93;;;10.60;99.90;;;;;;5017396;28;20462;-80
2021/12/04 15:34:56;;;;;;;4.53;1.70;;;10.70;99.90;;;;;;5016566;28;20453;-80
2021/12/04 15:37:33;;;;;;;5.60;3.60;;;10.70;99.90;;;;;;5017204;28;20487;-81
2021/12/04 15:40:00;;;;;;;5.33;3.10;;;10.60;99.90;;;;;;5018278;28;20483;-79
2021/12/04 15:42:30;;;;;;;5.73;3.03;;;10.60;99.90;;;;;;5018867;28;20453;-81
2021/12/04 15:45:15;;;;;;;4.60;2.73;;;10.60;99.90;;;;;;5018288;28;20564;-80
2021/12/04 15:47:48;;;;;;;6.40;3.80;;;10.70;99.90;;;;;;5017456;28;20511;-79
2021/12/04 15:53:09;;;;;;;4.87;2.47;;;10.80;99.90;;;;;;5016505;28;20525;-79
2021/12/04 15:55:39;;;;;;;4.63;2.20;;;10.80;99.90;;;;;;5018019;28;20952;-79